Time;durP1;ratioP1;P1;durP2;ratioP2;P2;SDS_P1;SDS_P2;PMS_P1;PMS_P2;Temp;Humidity;BMP_temperature;BMP_pressure;BME280_temperature;BME280_humidity;BME280_pressure;Samples;Min_cycle;Max_cycle;Signal;HPM_P1;HPM_P2
2022/03/24 00:00:45;;;;;;;24.67;16.15;;;;;;;6.58;36.40;100997.70;1689974;83;21528;-61
2022/03/24 00:03:12;;;;;;;25.08;14.87;;;;;;;6.63;36.27;100990.80;1675810;83;21054;-57
2022/03/24 00:05:40;;;;;;;28.02;15.72;;;;;;;6.66;36.11;100991.82;1681102;85;21503;-58
2022/03/24 00:08:09;;;;;;;26.02;15.68;;;;;;;6.87;35.89;100991.17;1680479;85;21077;-56
2022/03/24 00:10:37;;;;;;;25.52;15.72;;;;;;;6.77;35.87;100989.08;1680200;83;20993;-61
2022/03/24 00:13:04;;;;;;;30.12;14.47;;;;;;;6.83;35.79;100982.86;1701172;82;22240;-57
2022/03/24 00:15:32;;;;;;;23.07;14.43;;;;;;;6.88;35.69;100981.13;1698706;83;22242;-57
2022/03/24 00:17:59;;;;;;;28.47;15.68;;;;;;;6.81;35.70;100972.28;1681088;82;21004;-58
2022/03/24 00:20:27;;;;;;;26.40;14.68;;;;;;;6.87;35.49;100966.55;1704649;83;21259;-57
2022/03/24 00:22:55;;;;;;;24.23;13.55;;;;;;;6.76;35.53;100970.61;1713882;83;21097;-57
2022/03/24 00:25:24;;;;;;;23.92;14.20;;;;;;;6.77;35.58;100968.34;1698174;83;21035;-56
2022/03/24 00:27:53;;;;;;;22.73;14.33;;;;;;;6.70;35.67;100965.48;1702668;82;21029;-56
2022/03/24 00:30:22;;;;;;;25.23;14.03;;;;;;;6.62;35.71;100963.27;1710245;83;21989;-57
2022/03/24 00:32:49;;;;;;;25.35;14.55;;;;;;;6.61;35.72;100959.86;1685156;82;21283;-61
2022/03/24 00:35:18;;;;;;;25.90;14.78;;;;;;;6.65;35.72;100957.81;1699861;82;21098;-56
2022/03/24 00:37:45;;;;;;;29.10;16.25;;;;;;;6.61;35.74;100956.46;1713557;83;21160;-56
2022/03/24 00:40:16;;;;;;;30.70;17.25;;;;;;;6.63;35.71;100955.37;1698233;82;21041;-56
2022/03/24 00:42:42;;;;;;;28.62;15.72;;;;;;;6.70;35.56;100953.02;1679487;83;21055;-61
2022/03/24 00:45:12;;;;;;;25.65;15.90;;;;;;;6.65;35.47;100951.34;1706045;83;21848;-58
2022/03/24 00:47:42;;;;;;;27.32;15.32;;;;;;;6.51;35.51;100946.92;1716038;83;20995;-57
2022/03/24 00:50:10;;;;;;;27.50;15.38;;;;;;;6.56;35.52;100947.82;1702107;82;21026;-55
2022/03/24 00:52:41;;;;;;;27.42;16.30;;;;;;;6.54;35.52;100941.95;1679817;83;21040;-56
2022/03/24 00:55:22;;;;;;;28.90;15.98;;;;;;;6.41;35.61;100942.74;1693143;82;21044;-56
2022/03/24 00:57:51;;;;;;;30.12;17.02;;;;;;;6.35;35.63;100936.33;1706523;83;21180;-55
2022/03/24 01:00:20;;;;;;;28.23;16.50;;;;;;;6.39;35.41;100935.58;1702648;82;20989;-59
2022/03/24 01:02:49;;;;;;;30.57;16.37;;;;;;;6.51;35.38;100934.45;1680311;83;21074;-55
2022/03/24 01:05:18;;;;;;;26.45;16.50;;;;;;;6.39;35.50;100927.80;1701248;82;22485;-56
2022/03/24 01:07:49;;;;;;;27.58;16.60;;;;;;;6.40;35.51;100926.84;1714070;83;21026;-55
2022/03/24 01:10:19;;;;;;;29.57;17.02;;;;;;;6.31;35.56;100930.61;1712001;83;21315;-56
2022/03/24 01:12:47;;;;;;;27.20;15.80;;;;;;;6.06;35.85;100919.08;1706652;83;21034;-62
2022/03/24 01:15:18;;;;;;;29.18;17.23;;;;;;;6.22;35.68;100917.70;1688140;83;21070;-57
2022/03/24 01:17:46;;;;;;;28.67;16.15;;;;;;;5.99;36.04;100911.52;1675363;83;21082;-54
2022/03/24 01:20:14;;;;;;;31.65;18.62;;;;;;;5.88;36.27;100919.38;1682834;83;21050;-56
2022/03/24 01:22:42;;;;;;;27.87;18.02;;;;;;;5.92;36.30;100918.63;1689221;83;21111;-61
2022/03/24 01:25:10;;;;;;;27.45;17.17;;;;;;;5.91;36.23;100916.53;1684431;83;21005;-55
2022/03/24 01:27:42;;;;;;;29.77;18.48;;;;;;;5.93;36.25;100917.22;1685417;83;21055;-59
2022/03/24 01:30:09;;;;;;;29.52;18.60;;;;;;;5.88;36.23;100913.39;1680271;83;21090;-56
2022/03/24 01:32:39;;;;;;;31.87;19.85;;;;;;;5.88;36.19;100911.62;1682970;83;21065;-58
2022/03/24 01:35:08;;;;;;;29.67;17.75;;;;;;;5.81;36.31;100910.53;1684841;83;21127;-56
2022/03/24 01:37:36;;;;;;;32.15;18.70;;;;;;;5.78;36.54;100910.80;1684887;84;20967;-59
2022/03/24 01:40:05;;;;;;;29.87;18.30;;;;;;;5.85;36.45;100898.47;1682604;85;21090;-56
2022/03/24 01:42:37;;;;;;;33.73;18.73;;;;;;;5.79;36.64;100904.66;1682707;85;21145;-56
2022/03/24 01:45:05;;;;;;;29.05;18.85;;;;;;;5.73;36.61;100901.34;1695846;83;21097;-55
2022/03/24 01:47:34;;;;;;;28.62;18.02;;;;;;;5.73;36.63;100898.75;1709725;83;21888;-60
2022/03/24 01:50:03;;;;;;;32.00;18.27;;;;;;;5.68;36.82;100900.91;1706680;83;21065;-56
2022/03/24 01:52:31;;;;;;;34.65;18.67;;;;;;;5.66;36.90;100900.24;1691303;83;21062;-60
2022/03/24 01:54:59;;;;;;;32.00;18.52;;;;;;;5.66;36.97;100905.41;1677661;84;21500;-56
2022/03/24 01:57:27;;;;;;;40.95;23.47;;;;;;;5.53;37.05;100902.62;1690594;83;21023;-60
2022/03/24 01:59:57;;;;;;;50.25;27.67;;;;;;;5.71;37.37;100908.41;1685698;83;21203;-56
2022/03/24 02:02:25;;;;;;;56.40;30.30;;;;;;;5.65;38.16;100907.19;1685082;83;21003;-59
2022/03/24 02:04:53;;;;;;;63.90;35.17;;;;;;;5.63;38.67;100901.31;1660900;84;21101;-55
2022/03/24 02:07:21;;;;;;;59.08;31.42;;;;;;;5.58;39.32;100897.84;1694340;82;21075;-57
2022/03/24 02:09:50;;;;;;;59.30;30.77;;;;;;;5.58;39.80;100891.38;1658136;83;21059;-56
2022/03/24 02:12:18;;;;;;;53.02;28.95;;;;;;;4.45;41.78;100895.10;1690351;83;21251;-56
2022/03/24 02:14:47;;;;;;;45.15;27.15;;;;;;;4.35;42.40;100895.03;1705913;83;21013;-57
2022/03/24 02:17:18;;;;;;;40.88;25.72;;;;;;;6.20;39.61;100887.23;1688136;83;21013;-57
2022/03/24 02:19:47;;;;;;;43.02;25.72;;;;;;;6.58;39.06;100884.53;1638190;85;21067;-56
2022/03/24 02:22:17;;;;;;;39.92;25.57;;;;;;;6.81;38.54;100872.52;1686478;84;20960;-56
2022/03/24 02:24:46;;;;;;;46.08;25.82;;;;;;;6.77;38.27;100869.40;1701910;83;20932;-56
2022/03/24 02:27:14;;;;;;;47.25;24.70;;;;;;;6.77;38.33;100866.81;1709679;83;20915;-60
2022/03/24 02:29:41;;;;;;;40.08;25.15;;;;;;;6.66;38.36;100868.28;1706196;83;21085;-55
2022/03/24 02:32:11;;;;;;;43.73;22.93;;;;;;;6.80;37.98;100866.53;1699657;84;21054;-56
2022/03/24 02:34:40;;;;;;;46.25;23.57;;;;;;;6.92;37.70;100863.75;1706425;83;21141;-54
2022/03/24 02:37:12;;;;;;;37.70;20.40;;;;;;;6.89;37.51;100862.25;1700759;84;21116;-55
2022/03/24 02:39:41;;;;;;;33.60;19.20;;;;;;;7.01;37.08;100862.90;1677072;83;21543;-55
2022/03/24 02:42:14;;;;;;;44.15;24.87;;;;;;;7.02;36.59;100864.04;1681900;84;21074;-56
2022/03/24 02:44:49;;;;;;;47.73;26.82;;;;;;;7.14;36.90;100863.35;1701306;83;21503;-59
2022/03/24 02:47:17;;;;;;;48.38;28.73;;;;;;;6.98;37.47;100870.95;1680379;83;21088;-56
2022/03/24 02:49:47;;;;;;;49.60;26.23;;;;;;;6.57;37.90;100865.27;1682782;83;21240;-59
2022/03/24 02:52:14;;;;;;;49.03;27.60;;;;;;;6.46;38.08;100864.14;1695436;83;21155;-59
2022/03/24 02:54:42;;;;;;;47.13;27.70;;;;;;;6.44;38.29;100866.89;1709764;83;21070;-55
2022/03/24 02:57:10;;;;;;;49.27;27.77;;;;;;;6.42;38.52;100866.20;1689014;83;21026;-56
2022/03/24 02:59:38;;;;;;;52.55;27.98;;;;;;;6.32;38.52;100866.69;1673051;83;21059;-55
2022/03/24 03:02:13;;;;;;;47.55;27.10;;;;;;;5.54;39.68;100870.63;1710741;83;21204;-56
2022/03/24 03:04:42;;;;;;;55.55;29.67;;;;;;;5.31;39.72;100877.00;1700821;83;21088;-54
2022/03/24 03:07:09;;;;;;;55.08;28.38;;;;;;;5.21;39.87;100874.38;1684885;83;21051;-55
2022/03/24 03:09:38;;;;;;;47.35;28.90;;;;;;;5.32;39.71;100878.63;1706941;82;20961;-60
2022/03/24 03:12:09;;;;;;;48.25;29.20;;;;;;;5.04;40.02;100870.69;1685896;83;21010;-60
2022/03/24 03:14:38;;;;;;;51.30;29.87;;;;;;;4.91;40.11;100875.73;1695268;83;21384;-55
2022/03/24 03:17:07;;;;;;;47.50;28.80;;;;;;;4.80;40.22;100876.16;1675142;84;20956;-56
2022/03/24 03:19:34;;;;;;;50.70;27.60;;;;;;;4.97;39.99;100870.05;1699557;83;21101;-60
2022/03/24 03:22:04;;;;;;;41.60;24.90;;;;;;;5.45;39.34;100874.00;1699964;83;21055;-60
2022/03/24 03:24:31;;;;;;;42.93;27.42;;;;;;;4.82;40.02;100868.30;1681310;84;21694;-55
2022/03/24 03:26:58;;;;;;;37.42;19.90;;;;;;;3.68;41.83;100868.31;1707216;83;21267;-56
2022/03/24 03:29:27;;;;;;;37.90;20.52;;;;;;;3.72;42.12;100867.12;1711828;83;21025;-56
2022/03/24 03:31:56;;;;;;;43.25;22.48;;;;;;;3.82;42.02;100864.13;1702370;83;21579;-56
2022/03/24 03:34:26;;;;;;;41.68;20.90;;;;;;;4.04;41.81;100862.72;1702604;84;21041;-59
2022/03/24 03:36:54;;;;;;;34.35;18.85;;;;;;;4.04;42.11;100857.56;1703538;84;21006;-55
2022/03/24 03:39:23;;;;;;;32.30;18.00;;;;;;;5.17;40.59;100848.95;1682765;83;21247;-60
2022/03/24 03:41:51;;;;;;;31.15;17.57;;;;;;;5.47;40.25;100844.97;1682353;85;21575;-55
2022/03/24 03:44:19;;;;;;;27.90;15.35;;;;;;;4.96;41.16;100849.02;1676859;83;21123;-56
2022/03/24 03:46:47;;;;;;;35.13;18.40;;;;;;;5.46;40.52;100846.41;1710293;83;22438;-56
2022/03/24 03:49:14;;;;;;;29.27;15.75;;;;;;;5.79;40.33;100835.62;1666931;83;21073;-60
2022/03/24 03:51:43;;;;;;;30.90;17.17;;;;;;;6.33;39.95;100833.39;1675676;83;21264;-56
2022/03/24 03:54:11;;;;;;;30.65;14.23;;;;;;;7.01;39.04;100830.02;1680833;83;20984;-56
2022/03/24 03:56:38;;;;;;;28.27;14.45;;;;;;;7.57;38.54;100828.09;1709158;83;22086;-55
2022/03/24 03:59:06;;;;;;;28.67;16.73;;;;;;;8.50;37.36;100826.64;1707610;83;21009;-56
2022/03/24 04:01:36;;;;;;;27.50;15.75;;;;;;;8.90;36.40;100820.45;1760198;77;21045;-56
2022/03/24 04:04:05;;;;;;;25.52;15.23;;;;;;;9.75;35.45;100817.16;1800585;79;21225;-59
2022/03/24 04:06:32;;;;;;;27.20;17.02;;;;;;;10.80;33.86;100807.95;1794333;77;20969;-56
2022/03/24 04:09:00;;;;;;;26.73;16.12;;;;;;;11.59;33.01;100805.93;1805159;79;21888;-55
2022/03/24 04:11:27;;;;;;;27.58;18.12;;;;;;;12.39;32.03;100811.39;1802486;79;21100;-59
2022/03/24 04:13:54;;;;;;;27.98;17.95;;;;;;;13.62;30.29;100795.29;1801710;79;20976;-57
2022/03/24 04:16:22;;;;;;;27.45;18.27;;;;;;;13.92;29.98;100794.60;1802323;78;22541;-56
2022/03/24 04:18:49;;;;;;;25.75;18.10;;;;;;;14.63;28.91;100789.16;1781373;79;21052;-55
2022/03/24 04:21:18;;;;;;;28.12;17.48;;;;;;;15.24;28.28;100790.92;1794332;77;21508;-55
2022/03/24 04:23:47;;;;;;;25.57;19.05;;;;;;;15.85;27.53;100784.67;1804934;77;20984;-58
2022/03/24 04:26:14;;;;;;;28.33;19.83;;;;;;;16.54;26.76;100780.92;1793683;79;20996;-58
2022/03/24 04:28:45;;;;;;;32.80;21.43;;;;;;;17.29;25.81;100775.05;1811630;79;22280;-57
2022/03/24 04:31:13;;;;;;;37.23;24.57;;;;;;;17.79;25.11;100780.83;1802954;78;21571;-57
2022/03/24 04:33:40;;;;;;;41.67;27.50;;;;;;;18.19;24.49;100772.00;1786960;79;20988;-60
2022/03/24 04:36:08;;;;;;;45.17;28.43;;;;;;;19.14;23.71;100770.06;1780072;79;21315;-56
2022/03/24 04:38:37;;;;;;;62.40;38.40;;;;;;;19.50;23.28;100773.54;1720042;82;22311;-58
2022/03/24 04:41:05;;;;;;;59.83;37.33;;;;;;;19.89;22.79;100768.12;1717306;82;22941;-56
2022/03/24 04:43:34;;;;;;;60.47;39.43;;;;;;;20.50;22.35;100781.30;1713259;81;21000;-56
2022/03/24 04:46:01;;;;;;;57.03;38.23;;;;;;;20.72;21.83;100783.27;1724191;81;21638;-56
2022/03/24 04:48:36;;;;;;;52.97;36.30;;;;;;;21.74;21.01;100774.33;1744605;81;21033;-57
2022/03/24 04:51:04;;;;;;;35.20;25.30;;;;;;;22.14;20.77;100760.03;1754159;79;21591;-57
2022/03/24 04:53:32;;;;;;;29.23;20.40;;;;;;;22.88;19.83;100760.29;1728190;81;21126;-58
2022/03/24 04:55:59;;;;;;;25.00;19.13;;;;;;;22.04;19.69;100752.70;1742035;80;21089;-58
2022/03/24 04:58:27;;;;;;;21.40;16.03;;;;;;;22.42;19.49;100751.84;1753767;79;21061;-57
2022/03/24 05:00:55;;;;;;;22.60;16.50;;;;;;;23.48;18.36;100743.73;1750566;79;21095;-56
2022/03/24 05:03:23;;;;;;;27.47;17.17;;;;;;;23.55;18.04;100753.62;1763795;79;21611;-57
2022/03/24 05:05:52;;;;;;;32.50;19.23;;;;;;;23.75;17.59;100758.28;1770125;79;21337;-56
2022/03/24 05:08:20;;;;;;;34.73;22.93;;;;;;;23.63;17.74;100759.78;1773135;79;21549;-56
2022/03/24 05:10:49;;;;;;;31.10;21.63;;;;;;;23.69;17.76;100760.13;1769023;79;21045;-56
2022/03/24 05:13:18;;;;;;;30.30;21.53;;;;;;;23.94;17.57;100758.13;1770363;79;21046;-55
2022/03/24 05:15:45;;;;;;;30.30;21.10;;;;;;;23.42;17.57;100752.22;1767303;80;21015;-56
2022/03/24 05:18:12;;;;;;;31.97;20.50;;;;;;;23.05;17.54;100756.99;1773166;79;21220;-57
2022/03/24 05:20:41;;;;;;;29.97;21.47;;;;;;;22.19;17.86;100755.56;1769218;80;21446;-60
2022/03/24 05:23:11;;;;;;;25.67;18.67;;;;;;;21.95;18.18;100761.63;1778159;79;21600;-56
2022/03/24 05:25:40;;;;;;;27.87;19.97;;;;;;;21.49;18.22;100758.87;1754203;79;21090;-61
2022/03/24 05:28:07;;;;;;;26.83;20.07;;;;;;;20.98;18.56;100764.12;1724809;81;21082;-59
2022/03/24 05:30:35;;;;;;;28.97;20.60;;;;;;;20.24;19.11;100764.08;1742699;80;21252;-58
2022/03/24 05:33:03;;;;;;;24.70;17.40;;;;;;;19.99;19.36;100761.70;1743177;82;21058;-59
2022/03/24 05:35:35;;;;;;;27.23;18.50;;;;;;;19.47;19.50;100758.93;1751267;80;21012;-59
2022/03/24 05:37:59;;;;;;;29.03;17.90;;;;;;;19.18;19.77;100756.68;1749004;80;20994;-58
2022/03/24 05:40:26;;;;;;;27.67;18.13;;;;;;;18.85;20.03;100764.58;1742641;80;21077;-62
2022/03/24 05:42:54;;;;;;;28.20;18.47;;;;;;;18.65;20.30;100766.66;1773699;79;21606;-58
2022/03/24 05:45:21;;;;;;;29.87;20.30;;;;;;;18.43;20.48;100764.49;1773334;79;21686;-58
2022/03/24 05:47:48;;;;;;;28.83;18.40;;;;;;;18.10;21.05;100764.08;1772046;79;21803;-58
2022/03/24 05:50:18;;;;;;;26.37;18.33;;;;;;;18.09;21.34;100757.99;1766040;80;21345;-58
2022/03/24 05:52:49;;;;;;;32.25;19.10;;;;;;;18.09;21.34;100757.99;1721180;80;26872;-58
2022/03/24 05:55:17;;;;;;;30.90;18.77;;;;;;;18.03;21.40;100761.50;1769647;79;21883;-59
2022/03/24 05:57:45;;;;;;;25.27;19.43;;;;;;;16.18;22.88;100774.09;1767077;80;21870;-61
2022/03/24 06:00:13;;;;;;;33.20;20.57;;;;;;;16.18;22.88;100774.09;1755751;80;21351;-59
2022/03/24 06:02:44;;;;;;;37.05;19.90;;;;;;;16.15;23.56;100770.04;1756399;80;21435;-58
2022/03/24 06:05:12;;;;;;;29.23;19.33;;;;;;;16.12;23.81;100765.19;1732722;81;21073;-58
2022/03/24 06:07:40;;;;;;;38.30;20.13;;;;;;;16.25;23.74;100762.53;1733123;81;21365;-61
2022/03/24 06:10:08;;;;;;;29.73;19.23;;;;;;;16.56;23.35;100757.04;1744656;81;21284;-59
2022/03/24 06:12:37;;;;;;;30.63;17.63;;;;;;;16.56;23.35;100757.04;1729274;81;21335;-57
2022/03/24 06:15:06;;;;;;;31.00;17.83;;;;;;;16.64;23.40;100749.41;1751119;80;22663;-59
2022/03/24 06:17:33;;;;;;;31.63;19.77;;;;;;;16.94;23.52;100747.03;1744298;81;21574;-61
2022/03/24 06:20:03;;;;;;;33.13;21.10;;;;;;;16.94;23.52;100747.03;1751992;79;21497;-58
2022/03/24 06:22:51;;;;;;;27.30;18.80;;;;;;;17.41;23.44;100744.33;1750535;79;21606;-58
2022/03/24 06:25:18;;;;;;;34.77;20.93;;;;;;;18.08;22.96;100735.28;1730480;81;20990;-62
2022/03/24 06:27:46;;;;;;;29.07;18.93;;;;;;;19.14;22.18;100727.26;1718264;81;21061;-58
2022/03/24 06:30:14;;;;;;;27.57;17.97;;;;;;;19.91;21.39;100725.02;1750990;81;21062;-63
2022/03/24 06:32:42;;;;;;;25.67;16.07;;;;;;;20.15;21.05;100725.27;1752284;79;21262;-58
2022/03/24 06:35:11;;;;;;;23.23;14.97;;;;;;;18.92;21.79;100728.30;1742612;81;20956;-60
2022/03/24 06:37:42;;;;;;;14.30;10.57;;;;;;;19.03;21.92;100725.92;1737694;81;21111;-60
2022/03/24 06:40:11;;;;;;;12.33;8.83;;;;;;;20.33;20.42;100720.81;1750910;81;21070;-63
2022/03/24 06:42:40;;;;;;;13.98;9.45;;;;;;;21.05;19.03;100717.06;1702345;81;21639;-60
2022/03/24 06:45:10;;;;;;;11.87;9.10;;;;;;;21.03;18.71;100720.49;1728570;81;21536;-62
2022/03/24 06:47:39;;;;;;;13.80;8.70;;;;;;;21.10;18.55;100726.44;1722381;81;21815;-59
2022/03/24 06:50:10;;;;;;;15.40;8.33;;;;;;;21.77;18.29;100721.58;1742042;80;20979;-61
2022/03/24 06:52:37;;;;;;;;;;;;;;;22.20;17.75;100721.84;1735295;79;21059;-59
2022/03/24 06:55:06;;;;;;;12.03;8.23;;;;;;;21.73;18.08;100723.12;1729033;81;20197;-63
2022/03/24 06:57:34;;;;;;;11.47;7.40;;;;;;;22.35;17.57;100724.70;1732770;81;21152;-59
2022/03/24 07:00:03;;;;;;;12.97;9.00;;;;;;;21.34;17.79;100731.59;1749076;80;20919;-59
2022/03/24 07:02:31;;;;;;;12.77;8.77;;;;;;;20.83;18.16;100732.06;1747965;80;21547;-60
2022/03/24 07:04:58;;;;;;;10.00;8.03;;;;;;;21.09;18.38;100725.34;1729175;79;21118;-59
2022/03/24 07:07:27;;;;;;;12.20;7.57;;;;;;;21.24;17.97;100727.42;1737024;81;20841;-58
2022/03/24 07:09:54;;;;;;;9.60;6.67;;;;;;;20.97;18.22;100728.06;1743054;81;21257;-61
2022/03/24 07:12:22;;;;;;;9.97;7.13;;;;;;;22.74;17.23;100712.58;1751489;81;21559;-59
2022/03/24 07:14:49;;;;;;;10.63;7.10;;;;;;;22.30;17.54;100704.70;1748451;80;20982;-58
2022/03/24 07:17:17;;;;;;;9.97;7.27;;;;;;;22.81;17.39;100707.86;1732456;81;21066;-61
2022/03/24 07:19:45;;;;;;;11.67;7.33;;;;;;;23.88;16.69;100695.26;1742598;80;21665;-64
2022/03/24 07:22:12;;;;;;;13.97;6.43;;;;;;;24.52;16.39;100694.12;1722305;81;21571;-60
2022/03/24 07:24:40;;;;;;;10.60;6.47;;;;;;;25.03;15.81;100683.44;1727933;81;21041;-59
2022/03/24 07:27:08;;;;;;;8.60;5.93;;;;;;;25.24;15.58;100678.38;1749482;81;20972;-59
2022/03/24 07:29:35;;;;;;;7.90;5.23;;;;;;;25.38;15.18;100677.78;1699006;82;21395;-61
2022/03/24 07:32:04;;;;;;;8.73;5.07;;;;;;;25.20;15.01;100683.19;1724072;79;21057;-60
2022/03/24 07:34:31;;;;;;;9.00;5.10;;;;;;;24.99;15.21;100680.50;1752127;81;21194;-60
2022/03/24 07:36:58;;;;;;;8.57;6.33;;;;;;;25.02;15.23;100675.72;1751549;81;20959;-61
2022/03/24 07:39:26;;;;;;;7.40;5.03;;;;;;;25.16;14.75;100667.45;1727737;81;21524;-61
2022/03/24 07:41:53;;;;;;;9.03;4.73;;;;;;;24.98;15.03;100670.11;1727843;81;21569;-59
2022/03/24 07:44:21;;;;;;;7.67;4.63;;;;;;;24.81;14.93;100670.38;1749631;79;21093;-59
2022/03/24 07:46:49;;;;;;;6.87;4.43;;;;;;;24.63;15.18;100669.07;1728318;80;21564;-59
2022/03/24 07:49:17;;;;;;;10.63;4.37;;;;;;;24.58;15.13;100667.72;1739027;81;21134;-62
2022/03/24 07:51:45;;;;;;;6.97;4.13;;;;;;;24.44;15.21;100664.80;1746686;81;21006;-60
2022/03/24 07:54:12;;;;;;;8.83;4.30;;;;;;;24.24;15.31;100662.05;1752660;79;21030;-59
2022/03/24 07:56:41;;;;;;;6.70;4.60;;;;;;;24.45;15.16;100658.39;1768882;79;21567;-59
2022/03/24 07:59:08;;;;;;;8.43;5.63;;;;;;;24.57;15.15;100652.80;1770711;79;21300;-60
2022/03/24 08:01:36;;;;;;;7.77;4.53;;;;;;;24.60;15.50;100651.48;1766809;78;21542;-60
2022/03/24 08:04:05;;;;;;;9.17;5.00;;;;;;;24.81;14.88;100652.25;1782290;78;20933;-59
2022/03/24 08:06:35;;;;;;;16.40;9.47;;;;;;;24.65;14.49;100650.13;1776689;79;21071;-59
2022/03/24 08:09:02;;;;;;;11.33;6.17;;;;;;;24.34;15.18;100647.42;1786052;78;21619;-63
2022/03/24 08:11:30;;;;;;;8.70;5.20;;;;;;;24.23;15.24;100648.48;1778360;79;21253;-62
2022/03/24 08:13:57;;;;;;;8.20;5.13;;;;;;;24.44;15.29;100645.34;1782956;79;21567;-61
2022/03/24 08:16:26;;;;;;;9.47;5.27;;;;;;;24.78;15.27;100640.81;1785445;78;20983;-58
2022/03/24 08:18:57;;;;;;;7.20;5.30;;;;;;;25.24;14.72;100635.68;1784575;79;20944;-58
2022/03/24 08:21:25;;;;;;;11.07;5.60;;;;;;;25.39;14.61;100630.83;1780326;79;21006;-59
2022/03/24 08:23:53;;;;;;;8.10;5.50;;;;;;;25.05;14.52;100624.50;1766916;79;21245;-59
2022/03/24 08:26:20;;;;;;;8.33;5.93;;;;;;;24.66;15.19;100629.06;1769426;79;20998;-60
2022/03/24 08:28:49;;;;;;;12.10;7.03;;;;;;;24.64;15.30;100625.88;1765672;80;20995;-60
2022/03/24 08:31:17;;;;;;;12.67;7.20;;;;;;;24.66;15.14;100623.73;1772471;80;20987;-59
2022/03/24 08:33:44;;;;;;;7.97;6.17;;;;;;;24.66;15.14;100620.56;1771043;80;20991;-60
2022/03/24 08:36:12;;;;;;;10.40;6.03;;;;;;;24.70;15.00;100617.63;1772389;79;21144;-58
2022/03/24 08:38:39;;;;;;;14.17;6.40;;;;;;;24.83;15.12;100605.59;1770821;79;21031;-58
2022/03/24 08:41:06;;;;;;;11.53;7.33;;;;;;;25.06;15.07;100602.09;1768731;79;21035;-59
2022/03/24 08:43:34;;;;;;;12.43;6.63;;;;;;;25.12;15.03;100603.72;1765095;79;21594;-62
2022/03/24 08:46:03;;;;;;;9.97;6.63;;;;;;;24.84;15.12;100598.39;1747154;80;21013;-59
2022/03/24 08:48:31;;;;;;;7.97;5.93;;;;;;;24.80;15.24;100607.47;1751461;80;21259;-58
2022/03/24 08:50:59;;;;;;;11.30;7.40;;;;;;;24.39;15.28;100588.83;1744287;80;20986;-59
2022/03/24 08:53:26;;;;;;;10.97;7.23;;;;;;;24.07;15.46;100599.72;1755972;79;21430;-59
2022/03/24 08:55:55;;;;;;;14.37;7.27;;;;;;;23.80;15.77;100591.94;1784925;79;21341;-59
2022/03/24 08:58:24;;;;;;;10.53;7.17;;;;;;;24.08;15.69;100582.66;1766623;79;22209;-58
2022/03/24 09:00:53;;;;;;;16.17;6.55;;;;;;;24.46;15.96;100577.91;1759542;80;20912;-60
2022/03/24 09:03:21;;;;;;;26.83;8.00;;;;;;;24.92;15.08;100574.64;1757984;80;20993;-59
2022/03/24 09:05:50;;;;;;;10.83;5.33;;;;;;;24.89;14.97;100575.20;1748553;79;20884;-59
2022/03/24 09:08:17;;;;;;;10.83;5.93;;;;;;;25.16;14.53;100560.20;1743570;79;21056;-59
2022/03/24 09:10:50;;;;;;;10.20;5.87;;;;;;;24.86;14.34;100567.73;1723063;81;21579;-63
2022/03/24 09:13:15;;;;;;;6.30;4.90;;;;;;;24.07;14.85;100565.63;1749357;81;21208;-60
2022/03/24 09:15:44;;;;;;;9.33;5.70;;;;;;;23.63;14.85;100566.03;1749218;79;20979;-62
2022/03/24 09:18:13;;;;;;;9.70;5.30;;;;;;;24.10;14.33;100562.44;1775141;78;21459;-58
2022/03/24 09:20:42;;;;;;;10.07;6.80;;;;;;;22.82;14.96;100561.94;1734768;79;21477;-60
2022/03/24 09:23:09;;;;;;;12.03;7.00;;;;;;;22.84;15.52;100562.47;1732460;79;21092;-60
2022/03/24 09:25:38;;;;;;;11.67;7.10;;;;;;;23.28;15.33;100550.23;1773978;79;21251;-59
2022/03/24 09:28:06;;;;;;;10.97;7.00;;;;;;;23.34;15.44;100548.41;1735266;80;20985;-59
2022/03/24 09:30:35;;;;;;;10.43;6.83;;;;;;;23.55;15.44;100541.53;1730723;81;21607;-60
2022/03/24 09:33:02;;;;;;;13.07;7.63;;;;;;;23.59;15.11;100538.35;1749628;81;20986;-59
2022/03/24 09:35:31;;;;;;;9.63;7.03;;;;;;;23.15;15.39;100530.77;1727197;81;21131;-63
2022/03/24 09:37:58;;;;;;;12.17;7.40;;;;;;;22.95;15.20;100532.25;1722492;83;21231;-61
2022/03/24 09:40:26;;;;;;;10.37;7.20;;;;;;;22.52;15.37;100532.78;1723055;83;21050;-60
2022/03/24 09:42:53;;;;;;;9.77;7.13;;;;;;;22.08;15.49;100524.95;1721778;81;20990;-60
2022/03/24 09:45:21;;;;;;;10.50;7.70;;;;;;;21.66;16.18;100531.47;1770308;79;21064;-59
2022/03/24 09:47:48;;;;;;;10.73;7.37;;;;;;;22.24;16.34;100520.62;1736617;81;21046;-59
2022/03/24 09:50:16;;;;;;;10.97;7.73;;;;;;;22.96;16.18;100513.94;1762856;79;21659;-60
2022/03/24 09:52:43;;;;;;;13.73;7.90;;;;;;;23.76;15.40;100515.80;1752262;80;20982;-63
2022/03/24 09:55:11;;;;;;;17.53;7.03;;;;;;;23.87;15.12;100502.52;1717251;82;21464;-60
2022/03/24 09:57:38;;;;;;;12.53;6.93;;;;;;;22.63;15.87;100500.97;1737956;80;21086;-60
2022/03/24 10:00:08;;;;;;;10.50;7.20;;;;;;;22.62;16.04;100496.19;1714494;82;21031;-61
2022/03/24 10:02:36;;;;;;;11.23;6.40;;;;;;;22.87;15.84;100492.84;1735536;81;21876;-60
2022/03/24 10:05:08;;;;;;;14.20;6.53;;;;;;;23.22;15.78;100495.41;1722392;82;21057;-64
2022/03/24 10:07:45;;;;;;;12.85;6.47;;;;;;;23.41;15.11;100490.41;1773299;79;20990;-60
2022/03/24 10:10:25;;;;;;;9.50;5.93;;;;;;;23.18;15.21;100493.80;1774794;79;20970;-63
2022/03/24 10:12:53;;;;;;;10.70;6.33;;;;;;;23.16;14.96;100485.83;1785586;79;21005;-59
2022/03/24 10:15:20;;;;;;;11.07;6.43;;;;;;;23.42;14.43;100481.39;1771736;79;21169;-59
2022/03/24 10:17:57;;;;;;;10.50;6.60;;;;;;;23.29;14.51;100476.02;1781257;78;21053;-61
2022/03/24 10:20:29;;;;;;;10.10;6.20;;;;;;;23.18;14.75;100471.72;1791527;79;21013;-62
2022/03/24 10:23:04;;;;;;;10.73;6.23;;;;;;;23.10;14.12;100470.91;1793227;78;20966;-61
2022/03/24 10:25:36;;;;;;;8.97;6.37;;;;;;;22.75;14.32;100464.35;1780095;79;21009;-59
2022/03/24 10:28:09;;;;;;;10.30;6.07;;;;;;;22.62;14.49;100461.64;1778638;79;21230;-62
2022/03/24 10:30:54;;;;;;;12.40;7.43;;;;;;;23.17;14.37;100462.16;1770851;79;21421;-62
2022/03/24 10:33:34;;;;;;;9.90;6.60;;;;;;;23.26;14.68;100461.40;1765780;79;20979;-59
2022/03/24 10:36:23;;;;;;;16.27;6.53;;;;;;;23.22;14.64;100459.50;1765121;79;22065;-63
2022/03/24 10:38:52;;;;;;;20.53;12.70;;;;;;;23.28;14.88;100455.27;1797391;78;21036;-60
2022/03/24 10:41:25;;;;;;;14.70;7.78;;;;;;;23.53;15.04;100459.06;1782318;79;21403;-58
2022/03/24 10:43:54;;;;;;;9.40;6.33;;;;;;;24.03;14.16;100455.64;1765640;79;20919;-60
2022/03/24 10:46:25;;;;;;;8.10;6.00;;;;;;;23.83;13.47;100455.66;1774124;79;21554;-59
2022/03/24 10:48:53;;;;;;;10.50;6.93;;;;;;;23.29;13.95;100454.73;1785596;79;21465;-58
2022/03/24 10:51:28;;;;;;;14.73;7.80;;;;;;;22.91;14.25;100447.44;1781630;79;21076;-59
2022/03/24 10:54:17;;;;;;;13.23;7.37;;;;;;;22.73;14.57;100447.86;1765299;79;21231;-62
2022/03/24 10:57:04;;;;;;;14.43;7.27;;;;;;;22.44;14.77;100444.27;1773196;79;21591;-60
2022/03/24 10:59:40;;;;;;;12.70;8.70;;;;;;;22.01;15.23;100453.22;1756521;79;21595;-60
2022/03/24 11:02:10;;;;;;;11.97;7.80;;;;;;;22.05;15.46;100441.86;1797182;78;21049;-61
2022/03/24 11:04:38;;;;;;;14.53;8.13;;;;;;;21.84;14.96;100435.59;1795079;78;21001;-63
2022/03/24 11:07:05;;;;;;;11.73;8.27;;;;;;;22.13;14.84;100430.50;1782672;79;22274;-60
2022/03/24 11:09:34;;;;;;;26.13;17.10;;;;;;;22.04;14.98;100426.97;1777890;79;21192;-60
2022/03/24 11:12:26;;;;;;;15.47;9.87;;;;;;;22.31;14.87;100428.27;1773528;78;20977;-61
2022/03/24 11:15:01;;;;;;;13.17;8.10;;;;;;;22.73;14.76;100426.59;1772067;79;20993;-61
2022/03/24 11:17:31;;;;;;;13.83;8.23;;;;;;;23.11;14.69;100428.62;1791862;79;20993;-61
2022/03/24 11:20:11;;;;;;;12.40;7.83;;;;;;;23.36;14.54;100412.73;1766997;79;20997;-64
2022/03/24 11:22:46;;;;;;;11.83;7.23;;;;;;;23.22;14.21;100416.44;1766092;79;21485;-60
2022/03/24 11:25:14;;;;;;;16.60;8.97;;;;;;;23.05;14.02;100414.53;1770721;79;20986;-61